Time;durP1;ratioP1;P1;durP2;ratioP2;P2;SDS_P1;SDS_P2;PMS_P1;PMS_P2;Temp;Humidity;BMP_temperature;BMP_pressure;BME280_temperature;BME280_humidity;BME280_pressure;Samples;Min_cycle;Max_cycle;Signal;HPM_P1;HPM_P2
2022/10/07 00:00:57;;;;;;;15.83;3.20;;;;;9.30;102262.00;;;;13066540;22;20168;-74
2022/10/07 00:06:06;;;;;;;9.73;3.10;;;;;9.30;102258.00;;;;13060992;22;20191;-74
2022/10/07 00:11:13;;;;;;;13.37;3.23;;;;;9.20;102255.00;;;;13039759;22;20195;-74
2022/10/07 00:16:17;;;;;;;18.27;3.20;;;;;9.10;102249.00;;;;13062714;22;20160;-74
2022/10/07 00:21:19;;;;;;;12.17;3.37;;;;;9.00;102246.00;;;;13065362;22;20163;-74
2022/10/07 00:26:22;;;;;;;15.87;3.40;;;;;8.90;102232.00;;;;13087755;22;20211;-74
2022/10/07 00:31:29;;;;;;;12.27;3.60;;;;;8.80;102234.00;;;;13035262;22;20156;-73
2022/10/07 00:36:33;;;;;;;9.87;3.43;;;;;8.90;102223.00;;;;13061154;22;20167;-73
2022/10/07 00:41:38;;;;;;;15.87;4.60;;;;;9.00;102219.00;;;;13085044;22;20160;-74
2022/10/07 00:46:39;;;;;;;22.87;4.40;;;;;8.90;102213.00;;;;13039621;22;20191;-74
2022/10/07 00:51:42;;;;;;;10.03;3.73;;;;;8.80;102211.00;;;;13061264;22;20164;-74
2022/10/07 00:56:45;;;;;;;13.67;3.67;;;;;8.80;102206.00;;;;13114308;22;20178;-74
2022/10/07 01:01:47;;;;;;;13.63;3.73;;;;;8.70;102206.00;;;;13035354;22;20166;-74
2022/10/07 01:06:48;;;;;;;12.60;3.40;;;;;8.60;102197.00;;;;13039461;22;20352;-73
2022/10/07 01:11:52;;;;;;;12.53;3.93;;;;;8.50;102193.00;;;;13061214;22;20270;-73
2022/10/07 01:17:06;;;;;;;10.40;3.73;;;;;8.40;102185.00;;;;13087851;22;20728;-73
2022/10/07 01:22:50;;;;;;;13.53;3.87;;;;;8.40;102183.00;;;;10633146;27;20364;-72
2022/10/07 01:28:19;;;;;;;17.50;3.40;;;;;8.40;102173.00;;;;10566398;27;20219;-75
2022/10/07 01:33:26;;;;;;;11.73;3.30;;;;;8.50;102168.00;;;;10566837;27;20196;-72
2022/10/07 01:38:32;;;;;;;17.83;3.50;;;;;8.50;102159.00;;;;10568228;27;20314;-72
2022/10/07 01:43:37;;;;;;;13.47;3.23;;;;;8.50;102149.00;;;;10577952;27;20199;-72
2022/10/07 01:48:38;;;;;;;16.33;3.73;;;;;8.40;102142.00;;;;10561382;27;20199;-74
2022/10/07 01:53:43;;;;;;;14.33;3.80;;;;;8.40;102144.00;;;;10560143;27;20189;-75
2022/10/07 01:59:04;;;;;;;17.07;3.67;;;;;8.20;102135.00;;;;10543202;27;20212;-75
2022/10/07 02:04:29;;;;;;;9.07;3.23;;;;;8.00;102122.00;;;;10530382;27;20207;-75
2022/10/07 02:09:55;;;;;;;10.50;3.80;;;;;7.90;102110.00;;;;10521209;27;20250;-75
2022/10/07 02:15:04;;;;;;;16.07;3.33;;;;;7.70;102109.00;;;;10538214;27;20195;-72
2022/10/07 02:20:10;;;;;;;14.80;4.07;;;;;7.70;102090.00;;;;10527098;27;20311;-72
2022/10/07 02:25:14;;;;;;;15.53;3.83;;;;;7.60;102081.00;;;;10551105;27;20226;-75
2022/10/07 02:30:18;;;;;;;22.50;4.37;;;;;7.60;102090.00;;;;10560545;27;20229;-75
2022/10/07 02:35:30;;;;;;;17.17;3.83;;;;;7.60;102074.00;;;;10518938;28;20191;-75
2022/10/07 02:40:38;;;;;;;9.50;3.20;;;;;7.60;102070.00;;;;10508768;28;20796;-75
2022/10/07 02:46:11;;;;;;;17.63;3.77;;;;;7.70;102064.00;;;;10534565;27;20247;-75
2022/10/07 02:51:18;;;;;;;17.47;3.63;;;;;7.80;102060.00;;;;10529828;27;20204;-75
2022/10/07 02:56:25;;;;;;;13.70;3.67;;;;;7.90;102049.00;;;;10493388;28;20228;-72
2022/10/07 03:01:30;;;;;;;14.20;3.67;;;;;8.00;102050.00;;;;10523044;27;20208;-73
2022/10/07 03:06:34;;;;;;;13.00;2.93;;;;;8.10;102035.00;;;;10502536;27;20226;-72
2022/10/07 03:11:37;;;;;;;15.57;3.57;;;;;8.20;102033.00;;;;10523839;27;20752;-72
2022/10/07 03:16:39;;;;;;;13.37;3.73;;;;;8.10;102031.00;;;;10519141;28;20735;-75
2022/10/07 03:21:40;;;;;;;17.53;3.30;;;;;7.90;102023.00;;;;10495095;27;20219;-75
2022/10/07 03:26:42;;;;;;;13.40;2.60;;;;;7.80;102026.00;;;;10507543;27;20591;-75
2022/10/07 03:31:46;;;;;;;14.53;4.10;;;;;7.60;102011.00;;;;10513152;27;20670;-75
2022/10/07 03:36:47;;;;;;;13.83;3.10;;;;;7.60;102009.00;;;;10536531;27;20200;-75
2022/10/07 03:41:50;;;;;;;12.10;3.10;;;;;7.50;102012.00;;;;10523866;27;20248;-75
2022/10/07 03:46:51;;;;;;;5.77;2.40;;;;;7.40;102009.00;;;;10531482;27;20603;-75
2022/10/07 03:51:56;;;;;;;9.43;2.80;;;;;7.40;102001.00;;;;10504899;28;20227;-75
2022/10/07 03:56:57;;;;;;;7.03;2.50;;;;;7.30;101997.00;;;;10543685;28;20197;-75
2022/10/07 04:01:59;;;;;;;11.03;3.97;;;;;7.40;101998.00;;;;10503279;27;20767;-75
2022/10/07 04:07:01;;;;;;;13.60;2.70;;;;;7.40;101998.00;;;;10529674;27;20208;-75
2022/10/07 04:12:03;;;;;;;14.67;3.20;;;;;7.50;101997.00;;;;10519681;27;20717;-75
2022/10/07 04:17:04;;;;;;;10.17;3.00;;;;;7.70;101989.00;;;;10530365;27;20228;-75
2022/10/07 04:22:06;;;;;;;11.50;3.27;;;;;7.80;101985.00;;;;10501228;27;20767;-75
2022/10/07 04:27:10;;;;;;;11.40;3.10;;;;;7.80;101983.00;;;;10498992;27;20208;-72
2022/10/07 04:32:32;;;;;;;15.30;3.40;;;;;7.80;101984.00;;;;10537517;27;20195;-75
2022/10/07 04:37:34;;;;;;;12.73;2.43;;;;;7.70;101986.00;;;;10521841;28;20245;-72
2022/10/07 04:47:55;;;;;;;15.23;3.23;;;;;7.50;101983.00;;;;10538261;27;20195;-75
2022/10/07 04:52:57;;;;;;;11.17;3.30;;;;;7.50;101971.00;;;;10503769;28;20188;-75
2022/10/07 04:58:05;;;;;;;22.23;3.33;;;;;7.50;101967.00;;;;10523705;28;20200;-75
2022/10/07 05:03:06;;;;;;;11.87;3.40;;;;;7.50;101968.00;;;;10514071;27;20195;-75
2022/10/07 05:08:07;;;;;;;13.20;3.67;;;;;7.50;101963.00;;;;10535998;27;20563;-75
2022/10/07 05:13:12;;;;;;;15.00;3.00;;;;;7.50;101959.00;;;;10526174;27;20220;-75
2022/10/07 05:18:14;;;;;;;24.07;2.90;;;;;7.50;101957.00;;;;10518355;27;20549;-75
2022/10/07 05:23:18;;;;;;;17.00;3.90;;;;;7.60;101950.00;;;;10506251;27;20901;-75
2022/10/07 05:28:22;;;;;;;13.23;3.17;;;;;7.60;101944.00;;;;10504762;27;20234;-75
2022/10/07 05:33:23;;;;;;;15.57;3.77;;;;;7.70;101948.00;;;;10514546;27;20200;-72
2022/10/07 05:38:25;;;;;;;15.17;3.43;;;;;7.70;101941.00;;;;10506974;27;20208;-73
2022/10/07 05:43:29;;;;;;;10.77;3.50;;;;;7.70;101952.00;;;;10498836;28;20200;-75
2022/10/07 05:48:33;;;;;;;14.40;3.97;;;;;7.80;101947.00;;;;10503414;27;20192;-75
2022/10/07 05:53:41;;;;;;;8.93;3.20;;;;;7.90;101941.00;;;;10525150;28;20280;-75
2022/10/07 05:58:44;;;;;;;19.17;3.80;;;;;7.90;101936.00;;;;10526307;28;20213;-75
2022/10/07 06:03:52;;;;;;;13.43;3.57;;;;;8.00;101937.00;;;;10502693;27;20767;-75
2022/10/07 06:13:06;;;;;;;14.03;3.63;;;;;8.10;101935.00;;;;10509369;27;20220;-73
2022/10/07 06:14:17;;;;;;;12.67;3.60;;;;;8.30;101926.00;;;;10516687;27;20222;-73
2022/10/07 06:19:21;;;;;;;23.00;4.40;;;;;8.40;101930.00;;;;10535093;27;20220;-73
2022/10/07 06:24:24;;;;;;;21.13;4.03;;;;;8.60;101932.00;;;;10539547;27;20690;-72
2022/10/07 06:29:25;;;;;;;14.77;4.40;;;;;8.70;101928.00;;;;10487773;28;20201;-72
2022/10/07 06:34:27;;;;;;;12.33;3.50;;;;;8.80;101922.00;;;;10526883;27;20226;-72
2022/10/07 06:39:29;;;;;;;16.27;4.00;;;;;9.00;101918.00;;;;10487285;27;20387;-72
2022/10/07 06:44:30;;;;;;;14.93;3.90;;;;;9.20;101924.00;;;;10507404;27;20193;-73
2022/10/07 06:49:34;;;;;;;13.03;3.57;;;;;9.30;101926.00;;;;10515562;27;20208;-73
2022/10/07 06:54:35;;;;;;;18.37;4.30;;;;;9.50;101932.00;;;;10521066;27;20204;-72
2022/10/07 06:59:37;;;;;;;12.80;4.03;;;;;9.60;101937.00;;;;10507742;27;20247;-73
2022/10/07 07:04:45;;;;;;;10.97;3.70;;;;;9.80;101930.00;;;;10509008;28;20254;-72
2022/10/07 07:09:46;;;;;;;17.33;3.20;;;;;10.10;101933.00;;;;10514264;28;20265;-72
2022/10/07 07:14:48;;;;;;;14.97;3.70;;;;;10.40;101934.00;;;;10505131;27;20208;-73
2022/10/07 07:19:52;;;;;;;19.17;4.33;;;;;10.60;101933.00;;;;10478656;27;20219;-73
2022/10/07 07:24:54;;;;;;;9.33;2.90;;;;;10.80;101933.00;;;;10529628;27;20266;-74
2022/10/07 07:29:57;;;;;;;14.20;3.33;;;;;11.20;101936.00;;;;10494666;27;20193;-74
2022/10/07 07:35:00;;;;;;;15.87;3.63;;;;;11.40;101934.00;;;;10496071;27;20779;-73
2022/10/07 07:40:03;;;;;;;15.27;3.37;;;;;11.70;101935.00;;;;10496513;27;20240;-73
2022/10/07 07:45:07;;;;;;;19.07;3.57;;;;;11.90;101929.00;;;;10472485;27;20226;-73
2022/10/07 07:50:09;;;;;;;13.03;3.33;;;;;12.30;101932.00;;;;10535826;28;20188;-73
2022/10/07 07:55:10;;;;;;;12.23;3.60;;;;;12.70;101923.00;;;;10527085;27;20287;-73
2022/10/07 08:00:14;;;;;;;22.97;3.93;;;;;13.10;101917.00;;;;10491579;27;20228;-73
2022/10/07 08:05:24;;;;;;;21.13;3.20;;;;;13.50;101921.00;;;;10513535;27;20642;-74
2022/10/07 08:10:29;;;;;;;20.53;3.33;;;;;13.80;101910.00;;;;10503450;27;20220;-73
2022/10/07 08:15:31;;;;;;;10.57;2.50;;;;;14.20;101906.00;;;;10512866;27;20200;-73
2022/10/07 08:20:32;;;;;;;10.53;3.17;;;;;14.70;101899.00;;;;10498622;28;20220;-74
2022/10/07 08:25:34;;;;;;;11.18;2.60;;;;;15.10;101907.00;;;;10502822;28;20201;-73
2022/10/07 08:30:38;;;;;;;11.18;2.95;;;;;15.50;101917.00;;;;10514891;28;20204;-74
2022/10/07 08:35:40;;;;;;;8.38;2.30;;;;;16.00;101908.00;;;;10497396;28;20211;-73
2022/10/07 08:40:49;;;;;;;12.05;3.03;;;;;16.30;101900.00;;;;10500959;27;20241;-73
2022/10/07 08:45:51;;;;;;;9.77;2.40;;;;;16.60;101894.00;;;;10500001;27;20192;-74
2022/10/07 08:51:03;;;;;;;8.63;2.97;;;;;17.00;101901.00;;;;10536188;27;20663;-73
2022/10/07 08:56:15;;;;;;;9.82;2.22;;;;;17.30;101897.00;;;;10504933;27;20204;-73
2022/10/07 09:01:31;;;;;;;12.10;2.88;;;;;17.60;101887.00;;;;10536769;27;20219;-73
2022/10/07 09:06:38;;;;;;;9.25;2.10;;;;;17.90;101885.00;;;;10515084;27;21297;-73
2022/10/07 09:11:42;;;;;;;7.82;2.65;;;;;18.10;101878.00;;;;10517868;28;20920;-74
2022/10/07 09:16:46;;;;;;;10.93;2.83;;;;;18.20;101872.00;;;;10534794;27;20201;-74
2022/10/07 09:21:49;;;;;;;18.63;3.00;;;;;18.30;101860.00;;;;10509624;27;20220;-74
2022/10/07 09:26:54;;;;;;;8.00;2.30;;;;;18.80;101863.00;;;;10543525;27;20204;-74
2022/10/07 09:31:56;;;;;;;12.38;2.42;;;;;19.00;101856.00;;;;10539547;28;20674;-74
2022/10/07 09:37:16;;;;;;;13.38;3.05;;;;;19.20;101852.00;;;;10495591;27;21110;-74
2022/10/07 09:42:37;;;;;;;10.35;2.55;;;;;19.20;101862.00;;;;10526580;28;20227;-74
2022/10/07 09:47:40;;;;;;;12.57;2.40;;;;;19.20;101844.00;;;;10555804;27;20244;-74
2022/10/07 09:52:54;;;;;;;11.35;2.75;;;;;19.40;101843.00;;;;10547794;27;20199;-74
2022/10/07 09:58:01;;;;;;;13.18;3.22;;;;;19.70;101845.00;;;;10537358;28;20610;-74
2022/10/07 10:03:06;;;;;;;11.00;3.00;;;;;19.80;101842.00;;;;10496700;28;20201;-74
2022/10/07 10:08:17;;;;;;;13.75;2.60;;;;;19.50;101839.00;;;;10547743;27;20200;-75
2022/10/07 10:13:39;;;;;;;9.73;2.90;;;;;20.20;101832.00;;;;10508695;27;20208;-74
2022/10/07 10:18:52;;;;;;;10.07;2.80;;;;;20.70;101815.00;;;;10522305;27;20772;-74
2022/10/07 10:24:04;;;;;;;10.50;2.45;;;;;21.10;101812.00;;;;10558048;27;20253;-74
2022/10/07 10:30:04;;;;;;;13.48;3.30;;;;;21.40;101802.00;;;;10502172;28;20211;-74
2022/10/07 10:35:26;;;;;;;7.63;2.10;;;;;21.70;101789.00;;;;10502307;27;20197;-74
2022/10/07 10:40:34;;;;;;;9.43;2.10;;;;;21.90;101785.00;;;;10506880;27;20205;-74
2022/10/07 10:46:12;;;;;;;9.98;2.13;;;;;22.10;101772.00;;;;10521644;27;20874;-74
2022/10/07 10:51:33;;;;;;;7.93;2.25;;;;;22.20;101773.00;;;;10535769;28;20189;-74
2022/10/07 10:56:57;;;;;;;11.25;2.13;;;;;22.20;101764.00;;;;10492031;28;20473;-74
2022/10/07 11:02:21;;;;;;;8.98;2.20;;;;;22.20;101755.00;;;;10531204;28;20218;-74
2022/10/07 11:07:28;;;;;;;12.40;2.40;;;;;22.40;101745.00;;;;10492543;27;20304;-74
2022/10/07 11:12:40;;;;;;;7.30;2.47;;;;;22.60;101741.00;;;;10514891;28;20284;-74
2022/10/07 11:17:42;;;;;;;7.15;1.90;;;;;22.60;101724.00;;;;10512526;27;20199;-74
2022/10/07 11:22:49;;;;;;;9.65;2.20;;;;;22.50;101720.00;;;;10537204;27;20574;-74
2022/10/07 11:27:59;;;;;;;5.00;1.95;;;;;22.40;101704.00;;;;10551183;27;20220;-75
2022/10/07 11:33:18;;;;;;;8.63;2.15;;;;;22.50;101696.00;;;;10511884;27;20271;-74
2022/10/07 11:38:28;;;;;;;10.00;2.45;;;;;22.70;101688.00;;;;10555871;27;20562;-74
2022/10/07 11:43:45;;;;;;;8.75;1.85;;;;;22.60;101684.00;;;;10489974;28;20211;-74
2022/10/07 11:49:21;;;;;;;7.40;2.05;;;;;22.60;101681.00;;;;10532783;27;20249;-74
2022/10/07 11:54:26;;;;;;;8.52;2.22;;;;;22.80;101666.00;;;;10566279;27;20204;-75
2022/10/07 11:59:42;;;;;;;9.32;2.28;;;;;23.10;101653.00;;;;10530086;27;20207;-75
2022/10/07 12:04:43;;;;;;;7.97;2.47;;;;;23.20;101632.00;;;;10562815;27;20211;-74
2022/10/07 12:09:53;;;;;;;9.95;2.15;;;;;23.10;101635.00;;;;10500856;28;20211;-74
2022/10/07 12:15:02;;;;;;;7.60;2.22;;;;;22.90;101624.00;;;;10538280;28;20195;-74
2022/10/07 12:20:45;;;;;;;9.02;2.20;;;;;22.90;101616.00;;;;10573195;27;20646;-74
2022/10/07 12:25:48;;;;;;;7.65;2.00;;;;;23.00;101616.00;;;;10561686;27;20198;-74
2022/10/07 12:30:52;;;;;;;8.10;2.10;;;;;23.00;101594.00;;;;10535600;27;20251;-74
2022/10/07 12:35:54;;;;;;;7.30;1.65;;;;;22.90;101582.00;;;;10547909;27;20196;-74
2022/10/07 12:41:06;;;;;;;9.55;2.03;;;;;22.80;101578.00;;;;10489335;28;20224;-74
2022/10/07 12:46:15;;;;;;;7.32;1.95;;;;;23.00;101568.00;;;;10569054;27;20196;-74
2022/10/07 12:51:24;;;;;;;8.88;2.05;;;;;23.00;101565.00;;;;10542393;27;20197;-74
2022/10/07 12:56:29;;;;;;;10.32;2.00;;;;;23.20;101546.00;;;;10559797;27;20224;-74
2022/10/07 13:01:56;;;;;;;8.38;2.08;;;;;23.20;101540.00;;;;10532726;28;20645;-74
2022/10/07 13:07:22;;;;;;;12.18;2.85;;;;;23.10;101538.00;;;;10535664;27;20306;-74
2022/10/07 13:12:33;;;;;;;9.70;1.70;;;;;22.50;101528.00;;;;10529069;27;20228;-75
2022/10/07 13:17:47;;;;;;;9.00;1.77;;;;;21.90;101519.00;;;;10544124;28;20245;-74
2022/10/07 13:22:48;;;;;;;8.80;1.50;;;;;21.50;101520.00;;;;10514712;28;20210;-74
2022/10/07 13:27:59;;;;;;;8.20;2.22;;;;;21.00;101508.00;;;;10529300;28;20204;-74
2022/10/07 13:33:37;;;;;;;8.95;2.30;;;;;21.00;101502.00;;;;10511883;28;20219;-74
2022/10/07 13:38:38;;;;;;;11.35;2.45;;;;;20.80;101500.00;;;;10532416;27;20906;-74
2022/10/07 13:43:42;;;;;;;5.07;1.55;;;;;21.30;101494.00;;;;10514042;27;20235;-74
2022/10/07 13:48:44;;;;;;;9.43;2.08;;;;;22.10;101483.00;;;;10541760;27;20208;-74
2022/10/07 13:53:58;;;;;;;8.07;1.65;;;;;22.20;101469.00;;;;10539070;27;20208;-74
2022/10/07 13:59:01;;;;;;;7.75;2.03;;;;;23.00;101472.00;;;;10518167;28;20248;-74
2022/10/07 14:04:10;;;;;;;9.02;2.22;;;;;21.10;101469.00;;;;10552616;27;20201;-74
2022/10/07 14:09:17;;;;;;;8.88;2.00;;;;;20.60;101462.00;;;;10535893;27;20220;-74
2022/10/07 14:14:32;;;;;;;8.23;2.03;;;;;20.10;101461.00;;;;10519013;27;20714;-74
2022/10/07 14:19:33;;;;;;;9.07;2.10;;;;;19.90;101446.00;;;;10544438;27;20226;-74
2022/10/07 14:24:35;;;;;;;9.82;1.85;;;;;20.10;101439.00;;;;10557150;27;20200;-74
2022/10/07 14:29:36;;;;;;;7.97;2.33;;;;;19.90;101437.00;;;;10504519;27;20192;-74
2022/10/07 14:40:02;;;;;;;6.35;2.35;;;;;19.40;101422.00;;;;10548079;27;20679;-74
2022/10/07 14:45:07;;;;;;;13.05;2.45;;;;;19.30;101411.00;;;;10573584;27;20196;-73
2022/10/07 14:50:12;;;;;;;10.55;2.00;;;;;19.10;101399.00;;;;10514668;27;20279;-74
2022/10/07 14:55:33;;;;;;;8.60;2.53;;;;;18.60;101403.00;;;;10525210;27;20205;-74
2022/10/07 15:00:35;;;;;;;12.27;2.35;;;;;18.50;101404.00;;;;10539017;27;20238;-73
2022/10/07 15:05:40;;;;;;;10.77;2.00;;;;;18.30;101397.00;;;;10547970;28;20199;-74
2022/10/07 15:10:42;;;;;;;10.88;2.15;;;;;18.00;101397.00;;;;10549651;27;20209;-73
2022/10/07 15:15:44;;;;;;;5.20;1.73;;;;;17.80;101391.00;;;;10555248;28;20204;-73
2022/10/07 15:20:53;;;;;;;13.38;2.08;;;;;17.60;101385.00;;;;10506383;28;20225;-73
2022/10/07 15:25:54;;;;;;;8.80;1.90;;;;;17.50;101372.00;;;;10536123;28;20249;-73
2022/10/07 15:31:02;;;;;;;9.27;2.00;;;;;17.40;101358.00;;;;10556698;27;20204;-73
2022/10/07 15:36:03;;;;;;;5.55;1.80;;;;;17.20;101366.00;;;;10503995;27;20209;-74
2022/10/07 15:41:05;;;;;;;9.23;2.45;;;;;17.10;101364.00;;;;10537760;27;20212;-74
2022/10/07 15:46:07;;;;;;;10.85;2.03;;;;;17.00;101363.00;;;;10527879;28;20195;-74
2022/10/07 15:51:08;;;;;;;11.27;2.70;;;;;16.90;101346.00;;;;10545649;27;20245;-73
2022/10/07 15:56:09;;;;;;;11.30;1.85;;;;;16.70;101357.00;;;;10513826;27;20622;-73
2022/10/07 16:01:11;;;;;;;7.55;2.00;;;;;16.50;101360.00;;;;10517298;27;20880;-74
2022/10/07 16:06:20;;;;;;;4.22;1.50;;;;;16.30;101364.00;;;;10497123;28;20208;-73
2022/10/07 16:11:21;;;;;;;10.70;2.13;;;;;16.20;101361.00;;;;10506075;27;20306;-73
2022/10/07 16:16:25;;;;;;;9.00;1.95;;;;;16.00;101359.00;;;;10507305;27;20532;-73
2022/10/07 16:21:32;;;;;;;9.88;1.80;;;;;15.80;101358.00;;;;10507510;27;20212;-73
2022/10/07 16:26:36;;;;;;;8.10;2.55;;;;;15.60;101357.00;;;;10534038;27;20196;-73
2022/10/07 16:31:39;;;;;;;6.45;1.83;;;;;15.30;101356.00;;;;10547924;27;20190;-73
2022/10/07 16:36:41;;;;;;;7.40;1.90;;;;;15.20;101350.00;;;;10507407;27;20228;-73
2022/10/07 16:41:48;;;;;;;9.17;1.97;;;;;15.00;101341.00;;;;10518660;28;20218;-73
2022/10/07 16:46:49;;;;;;;7.90;3.07;;;;;14.90;101339.00;;;;10519095;27;20819;-73
2022/10/07 16:51:51;;;;;;;9.40;2.17;;;;;14.90;101346.00;;;;10546038;27;20258;-73
2022/10/07 16:56:53;;;;;;;8.10;2.20;;;;;14.80;101360.00;;;;10502706;27;20196;-73
2022/10/07 17:01:55;;;;;;;8.20;1.90;;;;;14.60;101357.00;;;;10499446;27;20216;-73
2022/10/07 17:06:57;;;;;;;7.87;1.93;;;;;14.40;101344.00;;;;10517942;27;20542;-73
2022/10/07 17:11:58;;;;;;;8.07;2.30;;;;;14.30;101346.00;;;;10543483;27;20219;-73
2022/10/07 17:16:59;;;;;;;9.43;2.83;;;;;14.10;101345.00;;;;10491088;27;20617;-73
2022/10/07 17:22:02;;;;;;;9.77;2.30;;;;;13.90;101345.00;;;;10514338;27;20226;-73
2022/10/07 17:27:07;;;;;;;12.90;2.40;;;;;13.80;101351.00;;;;10537047;27;20199;-73
2022/10/07 17:32:09;;;;;;;9.77;2.17;;;;;13.60;101347.00;;;;10536713;27;20210;-73
2022/10/07 17:37:10;;;;;;;11.63;2.13;;;;;13.60;101348.00;;;;10505307;27;20226;-73
2022/10/07 17:42:11;;;;;;;15.70;2.53;;;;;13.50;101349.00;;;;10500927;27;20212;-73
2022/10/07 17:47:12;;;;;;;9.70;2.33;;;;;13.40;101356.00;;;;10521515;27;20201;-73
2022/10/07 17:52:14;;;;;;;6.40;2.13;;;;;13.20;101363.00;;;;10512080;27;20207;-73
2022/10/07 17:57:15;;;;;;;8.33;2.30;;;;;13.10;101358.00;;;;10484607;27;20197;-73
2022/10/07 18:02:16;;;;;;;9.50;2.70;;;;;13.10;101368.00;;;;10505437;27;20250;-73
2022/10/07 18:07:18;;;;;;;4.93;2.07;;;;;13.10;101366.00;;;;10542397;27;20192;-73
2022/10/07 18:17:40;;;;;;;8.67;2.30;;;;;13.20;101344.00;;;;10468569;28;20200;-73
2022/10/07 18:22:42;;;;;;;10.47;3.40;;;;;13.20;101348.00;;;;10522240;27;20248;-73
2022/10/07 18:27:44;;;;;;;11.27;3.27;;;;;13.10;101341.00;;;;10529237;27;20841;-73
2022/10/07 18:32:45;;;;;;;12.07;2.90;;;;;13.10;101338.00;;;;10503242;28;20201;-73
2022/10/07 18:37:49;;;;;;;13.30;2.67;;;;;13.00;101342.00;;;;10533459;27;20242;-73
2022/10/07 18:42:51;;;;;;;7.73;2.10;;;;;13.00;101344.00;;;;10521998;27;20220;-73
2022/10/07 18:47:52;;;;;;;7.73;2.70;;;;;12.90;101344.00;;;;10545877;27;20200;-73
2022/10/07 18:52:54;;;;;;;13.77;3.40;;;;;12.80;101346.00;;;;10544629;27;20222;-73
2022/10/07 18:57:55;;;;;;;9.90;2.97;;;;;12.70;101344.00;;;;10529862;27;20198;-73
2022/10/07 19:02:56;;;;;;;9.10;2.90;;;;;12.60;101344.00;;;;10569050;27;20268;-73
2022/10/07 19:07:57;;;;;;;11.80;3.40;;;;;12.70;101357.00;;;;10554979;27;20192;-73
2022/10/07 19:18:23;;;;;;;8.27;2.87;;;;;12.70;101347.00;;;;10523440;27;20197;-73
2022/10/07 19:23:26;;;;;;;12.63;3.33;;;;;12.60;101348.00;;;;10508799;27;20826;-73
2022/10/07 19:28:27;;;;;;;14.03;3.33;;;;;12.50;101344.00;;;;10516566;27;20225;-73
2022/10/07 19:33:28;;;;;;;16.30;3.33;;;;;12.50;101331.00;;;;10504226;27;20291;-73
2022/10/07 19:38:32;;;;;;;12.13;3.23;;;;;12.40;101325.00;;;;10527383;27;20210;-73
2022/10/07 19:43:34;;;;;;;10.00;2.77;;;;;12.30;101322.00;;;;10494818;28;20228;-73
2022/10/07 19:48:37;;;;;;;7.90;2.97;;;;;12.20;101318.00;;;;10514159;28;20208;-73
2022/10/07 19:53:40;;;;;;;13.03;3.27;;;;;12.20;101327.00;;;;10565542;27;20203;-73
2022/10/07 19:58:53;;;;;;;10.90;3.43;;;;;12.10;101329.00;;;;10559566;27;20208;-73
2022/10/07 20:04:03;;;;;;;7.30;2.97;;;;;12.00;101319.00;;;;10504286;27;20853;-73
2022/10/07 20:09:07;;;;;;;7.73;2.97;;;;;12.00;101324.00;;;;10557281;27;20211;-73
2022/10/07 20:14:08;;;;;;;8.27;3.40;;;;;11.90;101331.00;;;;10505997;27;20795;-73
2022/10/07 20:19:14;;;;;;;9.03;3.10;;;;;11.80;101327.00;;;;10503626;27;20216;-73
2022/10/07 20:24:15;;;;;;;12.03;3.83;;;;;11.90;101326.00;;;;10509075;27;20586;-73
2022/10/07 20:29:17;;;;;;;17.13;3.30;;;;;12.00;101330.00;;;;10536653;27;20193;-73
2022/10/07 20:34:25;;;;;;;12.17;3.60;;;;;12.00;101317.00;;;;10522838;27;20200;-73
2022/10/07 20:44:48;;;;;;;11.63;3.40;;;;;12.00;101319.00;;;;10517222;28;20196;-73
2022/10/07 20:49:50;;;;;;;10.97;3.77;;;;;12.00;101311.00;;;;10500948;27;20197;-73
2022/10/07 20:54:52;;;;;;;7.77;2.93;;;;;11.90;101320.00;;;;10531243;27;20208;-73
2022/10/07 20:59:54;;;;;;;12.83;3.53;;;;;11.90;101313.00;;;;10518559;27;20212;-73
2022/10/07 21:04:55;;;;;;;10.60;3.37;;;;;11.80;101315.00;;;;10512282;27;20902;-73
2022/10/07 21:09:57;;;;;;;8.80;3.07;;;;;11.70;101309.00;;;;10542070;28;20294;-73
2022/10/07 21:14:59;;;;;;;15.07;3.70;;;;;11.70;101312.00;;;;10536229;27;20802;-73
2022/10/07 21:20:01;;;;;;;9.07;3.00;;;;;11.70;101310.00;;;;10520683;27;20212;-73
2022/10/07 21:25:03;;;;;;;13.00;3.97;;;;;11.70;101299.00;;;;10492037;27;20200;-73
2022/10/07 21:30:05;;;;;;;9.47;3.10;;;;;11.80;101301.00;;;;10513526;27;20201;-73
2022/10/07 21:35:06;;;;;;;8.63;3.20;;;;;11.80;101293.00;;;;10535252;27;20402;-73
2022/10/07 21:40:08;;;;;;;9.87;3.30;;;;;11.70;101284.00;;;;10497088;28;20243;-73
2022/10/07 21:45:09;;;;;;;8.07;3.00;;;;;11.70;101290.00;;;;10556849;27;20207;-73
2022/10/07 21:50:11;;;;;;;7.53;2.83;;;;;11.60;101291.00;;;;10525415;28;20199;-73
2022/10/07 21:55:12;;;;;;;7.73;3.03;;;;;11.60;101300.00;;;;10529450;27;20808;-73
2022/10/07 22:00:14;;;;;;;7.53;2.67;;;;;11.50;101286.00;;;;10538415;27;20203;-73
2022/10/07 22:05:15;;;;;;;16.23;3.73;;;;;11.50;101287.00;;;;10505673;27;20196;-73
2022/10/07 22:10:17;;;;;;;8.27;2.93;;;;;11.50;101278.00;;;;10515200;27;20270;-73
2022/10/07 22:15:19;;;;;;;10.43;3.63;;;;;11.40;101272.00;;;;10544766;27;20590;-73
2022/10/07 22:20:20;;;;;;;15.80;3.40;;;;;11.30;101270.00;;;;10548372;27;20223;-73
2022/10/07 22:25:22;;;;;;;9.23;2.90;;;;;11.20;101267.00;;;;10542992;27;20205;-73
2022/10/07 22:30:24;;;;;;;8.40;3.33;;;;;11.20;101268.00;;;;10511937;27;20183;-73
2022/10/07 22:35:32;;;;;;;8.87;3.20;;;;;11.10;101266.00;;;;10502099;27;20192;-73
2022/10/07 22:40:37;;;;;;;12.73;3.67;;;;;11.10;101267.00;;;;10494644;27;20223;-73
2022/10/07 22:45:38;;;;;;;9.17;2.93;;;;;11.00;101258.00;;;;10513479;27;20283;-73
2022/10/07 22:50:40;;;;;;;9.67;3.33;;;;;11.00;101255.00;;;;10519056;28;20878;-73
2022/10/07 22:55:41;;;;;;;9.33;2.87;;;;;11.20;101250.00;;;;10529775;28;20188;-73
2022/10/07 23:00:42;;;;;;;9.80;2.37;;;;;11.40;101252.00;;;;10532782;27;20216;-73
2022/10/07 23:05:43;;;;;;;6.33;2.83;;;;;11.60;101249.00;;;;10539949;27;20768;-73
2022/10/07 23:10:55;;;;;;;11.43;2.60;;;;;11.70;101251.00;;;;10551569;27;20226;-73
2022/10/07 23:16:00;;;;;;;12.37;3.33;;;;;11.80;101243.00;;;;10521353;27;20204;-73
2022/10/07 23:21:14;;;;;;;12.60;2.30;;;;;11.80;101240.00;;;;10530369;27;20219;-73
2022/10/07 23:26:25;;;;;;;13.60;2.57;;;;;11.80;101241.00;;;;10523728;28;20890;-74
2022/10/07 23:31:29;;;;;;;10.57;2.47;;;;;11.90;101234.00;;;;10504074;28;20253;-74
2022/10/07 23:36:31;;;;;;;9.63;2.67;;;;;12.10;101233.00;;;;10512893;28;20200;-73
2022/10/07 23:41:33;;;;;;;10.27;2.93;;;;;12.30;101224.00;;;;10509449;27;20716;-73
2022/10/07 23:46:35;;;;;;;6.50;2.30;;;;;12.40;101224.00;;;;10529598;27;20257;-74
2022/10/07 23:51:36;;;;;;;12.53;2.50;;;;;12.40;101218.00;;;;10541194;27;20725;-74
2022/10/07 23:56:37;;;;;;;8.27;2.50;;;;;12.40;101214.00;;;;10529433;27;20196;-74
